sensor_id;sensor_type;location;lat;lon;timestamp;P1;durP1;ratioP1;P2;durP2;ratioP2
2570;SDS011;1295;51.130;6.732;2023-02-28T00:02:20;63.87;;;7.37;;
2570;SDS011;1295;51.130;6.732;2023-02-28T00:04:46;63.20;;;7.50;;
2570;SDS011;1295;51.130;6.732;2023-02-28T00:07:11;63.83;;;6.70;;
2570;SDS011;1295;51.130;6.732;2023-02-28T00:09:37;61.07;;;5.80;;
2570;SDS011;1295;51.130;6.732;2023-02-28T00:12:03;67.57;;;6.67;;
2570;SDS011;1295;51.130;6.732;2023-02-28T00:14:29;62.77;;;7.10;;
2570;SDS011;1295;51.130;6.732;2023-02-28T00:16:55;60.43;;;6.90;;
2570;SDS011;1295;51.130;6.732;2023-02-28T00:19:20;60.63;;;7.20;;
2570;SDS011;1295;51.130;6.732;2023-02-28T00:21:46;61.20;;;7.63;;
2570;SDS011;1295;51.130;6.732;2023-02-28T00:24:12;63.53;;;7.60;;
2570;SDS011;1295;51.130;6.732;2023-02-28T00:26:37;62.50;;;7.20;;
2570;SDS011;1295;51.130;6.732;2023-02-28T00:29:04;60.47;;;6.73;;
2570;SDS011;1295;51.130;6.732;2023-02-28T00:31:30;62.03;;;7.47;;
2570;SDS011;1295;51.130;6.732;2023-02-28T00:33:56;60.67;;;6.87;;
2570;SDS011;1295;51.130;6.732;2023-02-28T00:36:21;64.30;;;7.63;;
2570;SDS011;1295;51.130;6.732;2023-02-28T00:38:47;61.70;;;6.47;;
2570;SDS011;1295;51.130;6.732;2023-02-28T00:41:14;62.13;;;7.10;;
2570;SDS011;1295;51.130;6.732;2023-02-28T00:43:45;59.87;;;7.07;;
2570;SDS011;1295;51.130;6.732;2023-02-28T00:46:11;60.20;;;6.60;;
2570;SDS011;1295;51.130;6.732;2023-02-28T00:48:37;59.60;;;6.40;;
2570;SDS011;1295;51.130;6.732;2023-02-28T00:51:04;59.43;;;6.17;;
2570;SDS011;1295;51.130;6.732;2023-02-28T00:53:30;62.80;;;7.70;;
2570;SDS011;1295;51.130;6.732;2023-02-28T00:55:56;57.33;;;5.27;;
2570;SDS011;1295;51.130;6.732;2023-02-28T00:58:22;60.37;;;7.20;;
2570;SDS011;1295;51.130;6.732;2023-02-28T01:00:47;60.47;;;6.37;;
2570;SDS011;1295;51.130;6.732;2023-02-28T01:03:15;57.70;;;5.03;;
2570;SDS011;1295;51.130;6.732;2023-02-28T01:05:44;58.17;;;5.97;;
2570;SDS011;1295;51.130;6.732;2023-02-28T01:08:10;58.47;;;5.27;;
2570;SDS011;1295;51.130;6.732;2023-02-28T01:10:36;58.60;;;5.33;;
2570;SDS011;1295;51.130;6.732;2023-02-28T01:13:02;60.93;;;5.97;;
2570;SDS011;1295;51.130;6.732;2023-02-28T01:15:28;63.90;;;7.60;;
2570;SDS011;1295;51.130;6.732;2023-02-28T01:17:53;60.10;;;5.80;;
2570;SDS011;1295;51.130;6.732;2023-02-28T01:20:20;58.13;;;5.87;;
2570;SDS011;1295;51.130;6.732;2023-02-28T01:22:46;60.23;;;5.80;;
2570;SDS011;1295;51.130;6.732;2023-02-28T01:25:11;58.57;;;6.07;;
2570;SDS011;1295;51.130;6.732;2023-02-28T01:27:38;56.67;;;5.10;;
2570;SDS011;1295;51.130;6.732;2023-02-28T01:30:04;58.67;;;5.70;;
2570;SDS011;1295;51.130;6.732;2023-02-28T01:32:30;56.73;;;5.63;;
2570;SDS011;1295;51.130;6.732;2023-02-28T01:34:55;58.20;;;5.67;;
2570;SDS011;1295;51.130;6.732;2023-02-28T01:37:21;60.03;;;6.17;;
2570;SDS011;1295;51.130;6.732;2023-02-28T01:39:47;57.67;;;5.50;;
2570;SDS011;1295;51.130;6.732;2023-02-28T01:42:13;61.73;;;5.73;;
2570;SDS011;1295;51.130;6.732;2023-02-28T01:47:18;58.10;;;5.60;;
2570;SDS011;1295;51.130;6.732;2023-02-28T01:49:43;61.80;;;5.43;;
2570;SDS011;1295;51.130;6.732;2023-02-28T01:52:10;57.00;;;6.00;;
2570;SDS011;1295;51.130;6.732;2023-02-28T01:54:36;61.23;;;5.27;;
2570;SDS011;1295;51.130;6.732;2023-02-28T01:57:04;56.97;;;5.50;;
2570;SDS011;1295;51.130;6.732;2023-02-28T01:59:31;58.70;;;5.40;;
2570;SDS011;1295;51.130;6.732;2023-02-28T02:01:55;59.47;;;5.80;;
2570;SDS011;1295;51.130;6.732;2023-02-28T02:04:21;57.97;;;5.20;;
2570;SDS011;1295;51.130;6.732;2023-02-28T02:06:46;59.83;;;7.17;;
2570;SDS011;1295;51.130;6.732;2023-02-28T02:09:12;59.63;;;6.53;;
2570;SDS011;1295;51.130;6.732;2023-02-28T02:11:39;58.20;;;5.77;;
2570;SDS011;1295;51.130;6.732;2023-02-28T02:14:10;57.43;;;4.90;;
2570;SDS011;1295;51.130;6.732;2023-02-28T02:16:45;59.30;;;5.77;;
2570;SDS011;1295;51.130;6.732;2023-02-28T02:19:26;60.73;;;5.30;;
2570;SDS011;1295;51.130;6.732;2023-02-28T02:30:33;60.63;;;7.00;;
2570;SDS011;1295;51.130;6.732;2023-02-28T02:33:04;58.40;;;6.10;;
2570;SDS011;1295;51.130;6.732;2023-02-28T02:36:35;59.30;;;6.70;;
2570;SDS011;1295;51.130;6.732;2023-02-28T02:38:18;60.17;;;6.30;;
2570;SDS011;1295;51.130;6.732;2023-02-28T02:43:25;60.47;;;6.97;;
2570;SDS011;1295;51.130;6.732;2023-02-28T02:45:53;60.33;;;6.70;;
2570;SDS011;1295;51.130;6.732;2023-02-28T02:48:18;60.30;;;6.53;;
2570;SDS011;1295;51.130;6.732;2023-02-28T02:50:43;61.07;;;7.53;;
2570;SDS011;1295;51.130;6.732;2023-02-28T02:53:09;59.70;;;7.30;;
2570;SDS011;1295;51.130;6.732;2023-02-28T02:55:36;64.27;;;7.50;;
2570;SDS011;1295;51.130;6.732;2023-02-28T02:58:01;60.37;;;6.87;;
2570;SDS011;1295;51.130;6.732;2023-02-28T03:00:30;63.07;;;7.07;;
2570;SDS011;1295;51.130;6.732;2023-02-28T03:02:54;61.70;;;7.20;;
2570;SDS011;1295;51.130;6.732;2023-02-28T03:05:21;63.53;;;8.13;;
2570;SDS011;1295;51.130;6.732;2023-02-28T03:07:45;62.00;;;7.17;;
2570;SDS011;1295;51.130;6.732;2023-02-28T03:12:50;59.83;;;6.77;;
2570;SDS011;1295;51.130;6.732;2023-02-28T03:15:18;63.27;;;7.67;;
2570;SDS011;1295;51.130;6.732;2023-02-28T03:17:47;60.10;;;8.00;;
2570;SDS011;1295;51.130;6.732;2023-02-28T03:20:27;61.23;;;6.67;;
2570;SDS011;1295;51.130;6.732;2023-02-28T03:23:03;65.20;;;7.00;;
2570;SDS011;1295;51.130;6.732;2023-02-28T03:25:32;61.87;;;6.97;;
2570;SDS011;1295;51.130;6.732;2023-02-28T03:28:03;61.90;;;7.47;;
2570;SDS011;1295;51.130;6.732;2023-02-28T03:30:48;60.37;;;7.57;;
2570;SDS011;1295;51.130;6.732;2023-02-28T03:33:19;66.03;;;8.63;;
2570;SDS011;1295;51.130;6.732;2023-02-28T03:35:48;60.20;;;7.60;;
2570;SDS011;1295;51.130;6.732;2023-02-28T03:38:14;62.70;;;7.20;;
2570;SDS011;1295;51.130;6.732;2023-02-28T03:40:39;63.87;;;8.37;;
2570;SDS011;1295;51.130;6.732;2023-02-28T03:43:08;60.57;;;7.57;;
2570;SDS011;1295;51.130;6.732;2023-02-28T03:45:32;61.60;;;8.00;;
2570;SDS011;1295;51.130;6.732;2023-02-28T03:47:59;60.30;;;7.37;;
2570;SDS011;1295;51.130;6.732;2023-02-28T03:50:24;59.80;;;8.00;;
2570;SDS011;1295;51.130;6.732;2023-02-28T03:52:52;67.00;;;8.20;;
2570;SDS011;1295;51.130;6.732;2023-02-28T03:55:20;59.30;;;6.63;;
2570;SDS011;1295;51.130;6.732;2023-02-28T04:00:20;63.27;;;8.90;;
2570;SDS011;1295;51.130;6.732;2023-02-28T04:02:45;60.27;;;7.90;;
2570;SDS011;1295;51.130;6.732;2023-02-28T04:05:12;64.70;;;8.23;;
2570;SDS011;1295;51.130;6.732;2023-02-28T04:07:37;62.07;;;8.17;;
2570;SDS011;1295;51.130;6.732;2023-02-28T04:10:03;61.40;;;8.70;;
2570;SDS011;1295;51.130;6.732;2023-02-28T04:12:29;60.87;;;7.03;;
2570;SDS011;1295;51.130;6.732;2023-02-28T04:14:55;63.40;;;9.30;;
2570;SDS011;1295;51.130;6.732;2023-02-28T04:17:21;62.50;;;7.93;;
2570;SDS011;1295;51.130;6.732;2023-02-28T04:19:46;64.70;;;8.00;;
2570;SDS011;1295;51.130;6.732;2023-02-28T04:22:12;63.83;;;8.23;;
2570;SDS011;1295;51.130;6.732;2023-02-28T04:24:38;61.27;;;8.33;;
2570;SDS011;1295;51.130;6.732;2023-02-28T04:27:04;60.27;;;7.23;;
2570;SDS011;1295;51.130;6.732;2023-02-28T04:29:30;60.60;;;8.20;;
2570;SDS011;1295;51.130;6.732;2023-02-28T04:31:56;64.00;;;8.67;;
2570;SDS011;1295;51.130;6.732;2023-02-28T04:34:21;60.37;;;7.67;;
2570;SDS011;1295;51.130;6.732;2023-02-28T04:36:47;64.30;;;7.90;;
2570;SDS011;1295;51.130;6.732;2023-02-28T04:39:12;59.47;;;6.07;;
2570;SDS011;1295;51.130;6.732;2023-02-28T04:41:38;60.97;;;7.20;;
2570;SDS011;1295;51.130;6.732;2023-02-28T04:44:04;60.43;;;8.00;;
2570;SDS011;1295;51.130;6.732;2023-02-28T04:46:30;58.50;;;6.90;;
2570;SDS011;1295;51.130;6.732;2023-02-28T04:48:55;60.27;;;8.70;;
2570;SDS011;1295;51.130;6.732;2023-02-28T04:51:21;64.13;;;8.03;;
2570;SDS011;1295;51.130;6.732;2023-02-28T04:53:47;59.60;;;7.97;;
2570;SDS011;1295;51.130;6.732;2023-02-28T04:56:13;58.63;;;6.50;;
2570;SDS011;1295;51.130;6.732;2023-02-28T04:58:38;63.63;;;6.93;;
2570;SDS011;1295;51.130;6.732;2023-02-28T05:01:04;61.07;;;6.90;;
2570;SDS011;1295;51.130;6.732;2023-02-28T05:03:29;65.43;;;8.07;;
2570;SDS011;1295;51.130;6.732;2023-02-28T05:05:55;60.63;;;7.70;;
2570;SDS011;1295;51.130;6.732;2023-02-28T05:08:21;61.67;;;7.40;;
2570;SDS011;1295;51.130;6.732;2023-02-28T05:10:47;59.20;;;7.03;;
2570;SDS011;1295;51.130;6.732;2023-02-28T05:13:13;60.67;;;8.00;;
2570;SDS011;1295;51.130;6.732;2023-02-28T05:15:38;60.70;;;7.07;;
2570;SDS011;1295;51.130;6.732;2023-02-28T05:18:04;60.23;;;7.53;;
2570;SDS011;1295;51.130;6.732;2023-02-28T05:20:30;63.30;;;7.47;;
2570;SDS011;1295;51.130;6.732;2023-02-28T05:23:02;59.90;;;7.50;;
2570;SDS011;1295;51.130;6.732;2023-02-28T05:25:21;61.93;;;8.13;;
2570;SDS011;1295;51.130;6.732;2023-02-28T05:27:47;62.20;;;7.77;;
2570;SDS011;1295;51.130;6.732;2023-02-28T05:30:13;59.57;;;6.80;;
2570;SDS011;1295;51.130;6.732;2023-02-28T05:32:39;59.80;;;7.70;;
2570;SDS011;1295;51.130;6.732;2023-02-28T05:35:04;63.30;;;7.90;;
2570;SDS011;1295;51.130;6.732;2023-02-28T05:37:30;58.23;;;6.47;;
2570;SDS011;1295;51.130;6.732;2023-02-28T05:39:56;60.93;;;7.20;;
2570;SDS011;1295;51.130;6.732;2023-02-28T05:42:22;64.23;;;7.70;;
2570;SDS011;1295;51.130;6.732;2023-02-28T05:44:47;62.13;;;6.63;;
2570;SDS011;1295;51.130;6.732;2023-02-28T05:47:13;58.27;;;6.70;;
2570;SDS011;1295;51.130;6.732;2023-02-28T05:49:39;57.77;;;6.20;;
2570;SDS011;1295;51.130;6.732;2023-02-28T05:52:04;60.07;;;7.50;;
2570;SDS011;1295;51.130;6.732;2023-02-28T05:54:30;58.50;;;6.80;;
2570;SDS011;1295;51.130;6.732;2023-02-28T05:56:56;59.90;;;7.10;;
2570;SDS011;1295;51.130;6.732;2023-02-28T05:59:21;59.90;;;7.47;;
2570;SDS011;1295;51.130;6.732;2023-02-28T06:01:47;59.80;;;6.87;;
2570;SDS011;1295;51.130;6.732;2023-02-28T06:04:14;58.57;;;5.83;;
2570;SDS011;1295;51.130;6.732;2023-02-28T06:06:39;59.83;;;6.17;;
2570;SDS011;1295;51.130;6.732;2023-02-28T06:09:04;59.50;;;6.63;;
2570;SDS011;1295;51.130;6.732;2023-02-28T06:11:30;59.77;;;6.50;;
2570;SDS011;1295;51.130;6.732;2023-02-28T06:13:56;58.97;;;6.40;;
2570;SDS011;1295;51.130;6.732;2023-02-28T06:16:21;59.83;;;7.20;;
2570;SDS011;1295;51.130;6.732;2023-02-28T06:18:48;60.17;;;6.33;;
2570;SDS011;1295;51.130;6.732;2023-02-28T06:21:13;59.47;;;7.20;;
2570;SDS011;1295;51.130;6.732;2023-02-28T06:23:39;60.17;;;8.07;;
2570;SDS011;1295;51.130;6.732;2023-02-28T06:26:05;60.87;;;7.57;;
2570;SDS011;1295;51.130;6.732;2023-02-28T06:28:31;64.40;;;6.97;;
2570;SDS011;1295;51.130;6.732;2023-02-28T06:30:56;61.13;;;7.37;;
2570;SDS011;1295;51.130;6.732;2023-02-28T06:33:22;61.77;;;7.73;;
2570;SDS011;1295;51.130;6.732;2023-02-28T06:35:49;59.00;;;5.47;;
2570;SDS011;1295;51.130;6.732;2023-02-28T06:38:15;61.60;;;7.07;;
2570;SDS011;1295;51.130;6.732;2023-02-28T06:40:41;62.50;;;6.97;;
2570;SDS011;1295;51.130;6.732;2023-02-28T06:43:07;65.10;;;8.27;;
2570;SDS011;1295;51.130;6.732;2023-02-28T06:45:33;59.13;;;6.70;;
2570;SDS011;1295;51.130;6.732;2023-02-28T06:47:59;61.10;;;7.30;;
2570;SDS011;1295;51.130;6.732;2023-02-28T06:50:25;60.57;;;7.10;;
2570;SDS011;1295;51.130;6.732;2023-02-28T06:52:51;65.23;;;7.43;;
2570;SDS011;1295;51.130;6.732;2023-02-28T06:55:17;59.30;;;7.07;;
2570;SDS011;1295;51.130;6.732;2023-02-28T06:57:43;61.27;;;7.00;;
2570;SDS011;1295;51.130;6.732;2023-02-28T07:00:09;59.90;;;6.90;;
2570;SDS011;1295;51.130;6.732;2023-02-28T07:02:36;62.70;;;8.03;;
2570;SDS011;1295;51.130;6.732;2023-02-28T07:05:01;58.70;;;6.30;;
2570;SDS011;1295;51.130;6.732;2023-02-28T07:07:27;60.70;;;6.80;;
2570;SDS011;1295;51.130;6.732;2023-02-28T07:09:53;60.33;;;6.30;;
2570;SDS011;1295;51.130;6.732;2023-02-28T07:12:19;59.60;;;6.77;;
2570;SDS011;1295;51.130;6.732;2023-02-28T07:14:45;58.57;;;7.47;;
2570;SDS011;1295;51.130;6.732;2023-02-28T07:17:11;75.20;;;8.17;;
2570;SDS011;1295;51.130;6.732;2023-02-28T07:19:38;59.17;;;7.10;;
2570;SDS011;1295;51.130;6.732;2023-02-28T07:22:03;60.77;;;7.20;;
2570;SDS011;1295;51.130;6.732;2023-02-28T07:24:29;62.17;;;7.87;;
2570;SDS011;1295;51.130;6.732;2023-02-28T07:26:55;62.30;;;8.03;;
2570;SDS011;1295;51.130;6.732;2023-02-28T07:29:21;59.17;;;6.97;;
2570;SDS011;1295;51.130;6.732;2023-02-28T07:31:47;60.17;;;6.60;;
2570;SDS011;1295;51.130;6.732;2023-02-28T07:34:13;60.60;;;5.80;;
2570;SDS011;1295;51.130;6.732;2023-02-28T07:36:38;58.27;;;6.93;;
2570;SDS011;1295;51.130;6.732;2023-02-28T07:39:04;58.17;;;3.80;;
2570;SDS011;1295;51.130;6.732;2023-02-28T07:41:30;58.47;;;5.93;;
2570;SDS011;1295;51.130;6.732;2023-02-28T07:43:55;57.00;;;5.73;;
2570;SDS011;1295;51.130;6.732;2023-02-28T07:46:21;60.23;;;6.60;;
2570;SDS011;1295;51.130;6.732;2023-02-28T07:48:47;58.70;;;6.40;;
2570;SDS011;1295;51.130;6.732;2023-02-28T07:51:13;58.53;;;5.40;;
2570;SDS011;1295;51.130;6.732;2023-02-28T07:53:38;61.40;;;6.73;;
2570;SDS011;1295;51.130;6.732;2023-02-28T07:56:05;60.23;;;5.67;;
2570;SDS011;1295;51.130;6.732;2023-02-28T07:58:31;57.30;;;5.83;;
2570;SDS011;1295;51.130;6.732;2023-02-28T08:00:57;58.33;;;5.50;;
2570;SDS011;1295;51.130;6.732;2023-02-28T08:03:23;59.57;;;6.50;;
2570;SDS011;1295;51.130;6.732;2023-02-28T08:05:49;57.70;;;5.33;;
2570;SDS011;1295;51.130;6.732;2023-02-28T08:08:15;62.87;;;6.33;;
2570;SDS011;1295;51.130;6.732;2023-02-28T08:10:46;60.67;;;6.03;;
2570;SDS011;1295;51.130;6.732;2023-02-28T08:13:11;57.77;;;4.27;;
2570;SDS011;1295;51.130;6.732;2023-02-28T08:15:37;59.20;;;5.60;;
2570;SDS011;1295;51.130;6.732;2023-02-28T08:18:03;62.03;;;5.70;;
2570;SDS011;1295;51.130;6.732;2023-02-28T08:20:28;57.53;;;5.00;;
2570;SDS011;1295;51.130;6.732;2023-02-28T08:22:54;62.83;;;7.00;;
2570;SDS011;1295;51.130;6.732;2023-02-28T08:25:20;58.63;;;5.00;;
2570;SDS011;1295;51.130;6.732;2023-02-28T08:27:47;56.80;;;3.93;;
2570;SDS011;1295;51.130;6.732;2023-02-28T08:30:13;56.13;;;4.80;;
2570;SDS011;1295;51.130;6.732;2023-02-28T08:32:39;59.10;;;5.37;;
2570;SDS011;1295;51.130;6.732;2023-02-28T08:35:05;59.10;;;4.20;;
2570;SDS011;1295;51.130;6.732;2023-02-28T08:37:32;57.10;;;4.50;;
2570;SDS011;1295;51.130;6.732;2023-02-28T08:39:57;57.07;;;4.40;;
2570;SDS011;1295;51.130;6.732;2023-02-28T08:42:23;57.87;;;5.10;;
2570;SDS011;1295;51.130;6.732;2023-02-28T08:44:49;60.43;;;5.23;;
2570;SDS011;1295;51.130;6.732;2023-02-28T08:47:14;59.10;;;4.67;;
2570;SDS011;1295;51.130;6.732;2023-02-28T08:49:40;58.93;;;4.63;;
2570;SDS011;1295;51.130;6.732;2023-02-28T08:52:06;56.33;;;3.80;;
2570;SDS011;1295;51.130;6.732;2023-02-28T08:54:32;55.03;;;4.00;;
2570;SDS011;1295;51.130;6.732;2023-02-28T08:56:58;58.10;;;5.23;;
2570;SDS011;1295;51.130;6.732;2023-02-28T08:59:23;58.10;;;4.00;;
2570;SDS011;1295;51.130;6.732;2023-02-28T09:01:50;56.73;;;4.10;;
2570;SDS011;1295;51.130;6.732;2023-02-28T09:04:15;57.20;;;3.80;;
2570;SDS011;1295;51.130;6.732;2023-02-28T09:06:41;57.47;;;3.80;;
2570;SDS011;1295;51.130;6.732;2023-02-28T09:09:07;55.90;;;3.33;;
2570;SDS011;1295;51.130;6.732;2023-02-28T09:11:33;55.97;;;3.57;;
2570;SDS011;1295;51.130;6.732;2023-02-28T09:13:58;59.40;;;4.13;;
2570;SDS011;1295;51.130;6.732;2023-02-28T09:16:24;56.10;;;3.77;;
2570;SDS011;1295;51.130;6.732;2023-02-28T09:18:50;55.63;;;3.97;;
2570;SDS011;1295;51.130;6.732;2023-02-28T09:21:16;55.70;;;3.80;;
2570;SDS011;1295;51.130;6.732;2023-02-28T09:23:47;57.03;;;4.23;;
2570;SDS011;1295;51.130;6.732;2023-02-28T09:26:13;54.90;;;3.13;;
2570;SDS011;1295;51.130;6.732;2023-02-28T09:28:39;59.27;;;3.70;;
2570;SDS011;1295;51.130;6.732;2023-02-28T09:31:04;57.57;;;4.33;;
2570;SDS011;1295;51.130;6.732;2023-02-28T09:33:31;55.70;;;3.00;;
2570;SDS011;1295;51.130;6.732;2023-02-28T09:35:57;61.70;;;3.33;;
2570;SDS011;1295;51.130;6.732;2023-02-28T09:38:23;55.00;;;3.40;;
2570;SDS011;1295;51.130;6.732;2023-02-28T09:40:50;54.90;;;4.20;;
2570;SDS011;1295;51.130;6.732;2023-02-28T09:43:15;57.17;;;4.30;;
2570;SDS011;1295;51.130;6.732;2023-02-28T09:45:42;56.20;;;3.13;;
2570;SDS011;1295;51.130;6.732;2023-02-28T09:48:14;57.50;;;4.40;;
2570;SDS011;1295;51.130;6.732;2023-02-28T09:50:40;55.47;;;2.70;;
2570;SDS011;1295;51.130;6.732;2023-02-28T09:53:09;54.57;;;4.10;;
2570;SDS011;1295;51.130;6.732;2023-02-28T09:55:33;57.70;;;4.00;;
2570;SDS011;1295;51.130;6.732;2023-02-28T09:58:15;56.00;;;4.33;;
2570;SDS011;1295;51.130;6.732;2023-02-28T10:00:39;54.93;;;3.70;;
2570;SDS011;1295;51.130;6.732;2023-02-28T10:05:51;55.40;;;3.30;;
2570;SDS011;1295;51.130;6.732;2023-02-28T10:08:17;55.87;;;3.40;;
2570;SDS011;1295;51.130;6.732;2023-02-28T10:10:48;55.20;;;4.10;;
2570;SDS011;1295;51.130;6.732;2023-02-28T10:13:15;58.53;;;4.77;;
2570;SDS011;1295;51.130;6.732;2023-02-28T10:15:41;55.30;;;4.53;;
2570;SDS011;1295;51.130;6.732;2023-02-28T10:18:09;58.93;;;4.40;;
2570;SDS011;1295;51.130;6.732;2023-02-28T10:20:33;60.43;;;4.10;;
2570;SDS011;1295;51.130;6.732;2023-02-28T10:23:04;58.17;;;4.20;;
2570;SDS011;1295;51.130;6.732;2023-02-28T10:25:47;55.60;;;4.80;;
2570;SDS011;1295;51.130;6.732;2023-02-28T10:28:13;55.13;;;4.27;;
2570;SDS011;1295;51.130;6.732;2023-02-28T10:30:38;54.73;;;4.37;;
2570;SDS011;1295;51.130;6.732;2023-02-28T10:33:03;55.53;;;3.70;;
2570;SDS011;1295;51.130;6.732;2023-02-28T10:35:28;57.27;;;4.60;;
2570;SDS011;1295;51.130;6.732;2023-02-28T10:37:56;57.70;;;4.63;;
2570;SDS011;1295;51.130;6.732;2023-02-28T10:40:29;57.00;;;4.60;;
2570;SDS011;1295;51.130;6.732;2023-02-28T10:42:59;56.40;;;4.53;;
2570;SDS011;1295;51.130;6.732;2023-02-28T10:45:26;55.27;;;4.50;;
2570;SDS011;1295;51.130;6.732;2023-02-28T10:47:53;59.20;;;3.83;;
2570;SDS011;1295;51.130;6.732;2023-02-28T10:50:26;55.87;;;3.33;;
2570;SDS011;1295;51.130;6.732;2023-02-28T10:52:53;57.80;;;3.60;;
2570;SDS011;1295;51.130;6.732;2023-02-28T10:55:20;57.90;;;5.00;;
2570;SDS011;1295;51.130;6.732;2023-02-28T10:57:45;55.00;;;2.80;;
2570;SDS011;1295;51.130;6.732;2023-02-28T11:00:15;54.97;;;3.40;;
2570;SDS011;1295;51.130;6.732;2023-02-28T11:02:40;54.40;;;3.53;;
2570;SDS011;1295;51.130;6.732;2023-02-28T11:07:44;55.87;;;4.60;;
2570;SDS011;1295;51.130;6.732;2023-02-28T11:10:16;54.87;;;4.53;;
2570;SDS011;1295;51.130;6.732;2023-02-28T11:12:37;55.43;;;3.63;;
2570;SDS011;1295;51.130;6.732;2023-02-28T11:15:03;67.33;;;17.03;;
2570;SDS011;1295;51.130;6.732;2023-02-28T11:17:28;56.90;;;3.80;;
2570;SDS011;1295;51.130;6.732;2023-02-28T11:19:57;57.87;;;5.73;;
2570;SDS011;1295;51.130;6.732;2023-02-28T11:22:23;58.50;;;3.47;;
2570;SDS011;1295;51.130;6.732;2023-02-28T11:24:48;55.50;;;3.80;;
2570;SDS011;1295;51.130;6.732;2023-02-28T11:27:24;54.97;;;2.73;;
2570;SDS011;1295;51.130;6.732;2023-02-28T11:29:58;57.83;;;3.83;;
2570;SDS011;1295;51.130;6.732;2023-02-28T11:32:24;55.27;;;4.07;;
2570;SDS011;1295;51.130;6.732;2023-02-28T11:37:27;55.23;;;5.13;;
2570;SDS011;1295;51.130;6.732;2023-02-28T11:39:53;55.97;;;4.10;;
2570;SDS011;1295;51.130;6.732;2023-02-28T11:42:31;56.40;;;3.90;;
2570;SDS011;1295;51.130;6.732;2023-02-28T11:45:04;55.40;;;3.77;;
2570;SDS011;1295;51.130;6.732;2023-02-28T11:47:48;55.40;;;3.60;;
2570;SDS011;1295;51.130;6.732;2023-02-28T11:50:16;59.23;;;3.63;;
2570;SDS011;1295;51.130;6.732;2023-02-28T11:52:43;55.57;;;3.10;;
2570;SDS011;1295;51.130;6.732;2023-02-28T11:55:14;56.27;;;4.20;;
2570;SDS011;1295;51.130;6.732;2023-02-28T11:57:59;58.17;;;4.47;;
2570;SDS011;1295;51.130;6.732;2023-02-28T12:01:03;58.00;;;3.40;;
2570;SDS011;1295;51.130;6.732;2023-02-28T12:03:24;55.10;;;4.20;;
2570;SDS011;1295;51.130;6.732;2023-02-28T12:05:58;55.17;;;4.60;;
2570;SDS011;1295;51.130;6.732;2023-02-28T12:08:33;55.10;;;3.50;;
2570;SDS011;1295;51.130;6.732;2023-02-28T12:11:13;55.77;;;3.90;;
2570;SDS011;1295;51.130;6.732;2023-02-28T12:16:45;54.67;;;4.17;;
2570;SDS011;1295;51.130;6.732;2023-02-28T12:19:22;55.10;;;3.80;;
2570;SDS011;1295;51.130;6.732;2023-02-28T12:21:52;57.20;;;3.67;;
2570;SDS011;1295;51.130;6.732;2023-02-28T12:24:24;55.80;;;4.60;;
2570;SDS011;1295;51.130;6.732;2023-02-28T12:27:00;55.50;;;2.30;;
2570;SDS011;1295;51.130;6.732;2023-02-28T12:29:28;55.57;;;4.60;;
2570;SDS011;1295;51.130;6.732;2023-02-28T12:31:56;58.20;;;5.70;;
2570;SDS011;1295;51.130;6.732;2023-02-28T12:34:37;59.00;;;5.20;;
2570;SDS011;1295;51.130;6.732;2023-02-28T12:37:03;55.17;;;4.17;;
2570;SDS011;1295;51.130;6.732;2023-02-28T12:39:30;56.33;;;4.70;;
2570;SDS011;1295;51.130;6.732;2023-02-28T12:42:00;54.60;;;3.50;;
2570;SDS011;1295;51.130;6.732;2023-02-28T12:44:28;55.97;;;3.80;;
2570;SDS011;1295;51.130;6.732;2023-02-28T12:46:54;55.83;;;3.57;;
2570;SDS011;1295;51.130;6.732;2023-02-28T12:49:22;56.47;;;3.03;;
2570;SDS011;1295;51.130;6.732;2023-02-28T12:51:47;60.00;;;4.00;;
2570;SDS011;1295;51.130;6.732;2023-02-28T12:54:15;57.50;;;3.33;;
2570;SDS011;1295;51.130;6.732;2023-02-28T12:56:48;54.67;;;3.17;;
2570;SDS011;1295;51.130;6.732;2023-02-28T12:59:17;55.20;;;3.93;;
2570;SDS011;1295;51.130;6.732;2023-02-28T13:04:34;57.37;;;5.53;;
2570;SDS011;1295;51.130;6.732;2023-02-28T13:07:08;55.37;;;3.50;;
2570;SDS011;1295;51.130;6.732;2023-02-28T13:09:51;55.13;;;4.13;;
2570;SDS011;1295;51.130;6.732;2023-02-28T13:12:12;58.87;;;5.40;;
2570;SDS011;1295;51.130;6.732;2023-02-28T13:14:39;55.23;;;4.47;;
2570;SDS011;1295;51.130;6.732;2023-02-28T13:17:11;54.97;;;2.50;;
2570;SDS011;1295;51.130;6.732;2023-02-28T13:19:43;56.40;;;4.57;;
2570;SDS011;1295;51.130;6.732;2023-02-28T13:22:15;57.07;;;4.57;;
2570;SDS011;1295;51.130;6.732;2023-02-28T13:24:38;56.27;;;4.70;;
2570;SDS011;1295;51.130;6.732;2023-02-28T13:27:12;55.50;;;4.70;;
2570;SDS011;1295;51.130;6.732;2023-02-28T13:29:38;57.10;;;4.67;;
2570;SDS011;1295;51.130;6.732;2023-02-28T13:37:36;59.50;;;4.80;;
2570;SDS011;1295;51.130;6.732;2023-02-28T13:40:22;57.37;;;5.03;;
2570;SDS011;1295;51.130;6.732;2023-02-28T13:42:34;57.47;;;4.83;;
2570;SDS011;1295;51.130;6.732;2023-02-28T13:47:42;56.47;;;3.67;;
2570;SDS011;1295;51.130;6.732;2023-02-28T13:50:41;55.67;;;4.07;;
2570;SDS011;1295;51.130;6.732;2023-02-28T13:55:58;56.00;;;4.40;;
2570;SDS011;1295;51.130;6.732;2023-02-28T13:58:48;57.00;;;5.20;;
2570;SDS011;1295;51.130;6.732;2023-02-28T14:01:16;56.30;;;4.77;;
2570;SDS011;1295;51.130;6.732;2023-02-28T14:04:01;56.17;;;4.07;;
2570;SDS011;1295;51.130;6.732;2023-02-28T14:06:31;56.50;;;4.43;;
2570;SDS011;1295;51.130;6.732;2023-02-28T14:08:58;55.40;;;3.20;;
2570;SDS011;1295;51.130;6.732;2023-02-28T14:11:26;57.30;;;5.43;;
2570;SDS011;1295;51.130;6.732;2023-02-28T14:13:50;59.80;;;4.33;;
2570;SDS011;1295;51.130;6.732;2023-02-28T14:16:16;55.73;;;5.00;;
2570;SDS011;1295;51.130;6.732;2023-02-28T14:18:42;55.30;;;5.13;;
2570;SDS011;1295;51.130;6.732;2023-02-28T14:21:14;55.10;;;4.77;;
2570;SDS011;1295;51.130;6.732;2023-02-28T14:23:43;56.33;;;4.17;;
2570;SDS011;1295;51.130;6.732;2023-02-28T14:26:26;54.93;;;2.90;;
2570;SDS011;1295;51.130;6.732;2023-02-28T14:29:00;56.70;;;5.87;;
2570;SDS011;1295;51.130;6.732;2023-02-28T14:31:25;56.60;;;5.43;;
2570;SDS011;1295;51.130;6.732;2023-02-28T14:36:33;57.27;;;4.67;;
2570;SDS011;1295;51.130;6.732;2023-02-28T14:39:00;59.37;;;6.00;;
2570;SDS011;1295;51.130;6.732;2023-02-28T14:41:31;57.17;;;5.07;;
2570;SDS011;1295;51.130;6.732;2023-02-28T14:43:57;56.70;;;5.50;;
2570;SDS011;1295;51.130;6.732;2023-02-28T14:46:22;57.57;;;5.23;;
2570;SDS011;1295;51.130;6.732;2023-02-28T14:48:47;55.07;;;3.70;;
2570;SDS011;1295;51.130;6.732;2023-02-28T14:51:18;56.67;;;4.53;;
2570;SDS011;1295;51.130;6.732;2023-02-28T14:53:44;56.57;;;4.80;;
2570;SDS011;1295;51.130;6.732;2023-02-28T14:56:18;57.60;;;4.97;;
2570;SDS011;1295;51.130;6.732;2023-02-28T14:58:35;55.50;;;3.83;;
2570;SDS011;1295;51.130;6.732;2023-02-28T15:01:02;57.53;;;5.30;;
2570;SDS011;1295;51.130;6.732;2023-02-28T15:03:35;58.27;;;5.80;;
2570;SDS011;1295;51.130;6.732;2023-02-28T15:06:03;56.90;;;5.33;;
2570;SDS011;1295;51.130;6.732;2023-02-28T15:08:28;56.93;;;5.53;;
2570;SDS011;1295;51.130;6.732;2023-02-28T15:10:57;56.80;;;5.57;;
2570;SDS011;1295;51.130;6.732;2023-02-28T15:13:22;57.67;;;6.87;;
2570;SDS011;1295;51.130;6.732;2023-02-28T15:15:51;55.77;;;4.97;;
2570;SDS011;1295;51.130;6.732;2023-02-28T15:18:25;54.27;;;1.87;;
2570;SDS011;1295;51.130;6.732;2023-02-28T15:20:50;58.30;;;5.73;;
2570;SDS011;1295;51.130;6.732;2023-02-28T15:23:16;58.70;;;6.73;;
2570;SDS011;1295;51.130;6.732;2023-02-28T15:25:42;60.17;;;5.50;;
2570;SDS011;1295;51.130;6.732;2023-02-28T15:28:10;58.30;;;5.30;;
2570;SDS011;1295;51.130;6.732;2023-02-28T15:30:35;59.10;;;6.10;;
2570;SDS011;1295;51.130;6.732;2023-02-28T15:33:04;55.77;;;3.33;;
2570;SDS011;1295;51.130;6.732;2023-02-28T15:35:30;57.70;;;3.80;;
2570;SDS011;1295;51.130;6.732;2023-02-28T15:37:56;57.60;;;4.30;;
2570;SDS011;1295;51.130;6.732;2023-02-28T15:43:06;68.50;;;5.43;;
2570;SDS011;1295;51.130;6.732;2023-02-28T15:45:44;56.50;;;6.00;;
2570;SDS011;1295;51.130;6.732;2023-02-28T15:48:13;70.10;;;5.13;;
2570;SDS011;1295;51.130;6.732;2023-02-28T15:50:48;58.20;;;4.90;;
2570;SDS011;1295;51.130;6.732;2023-02-28T15:53:13;56.17;;;5.23;;